sensor_id;sensor_type;location;lat;lon;timestamp;pressure;altitude;pressure_sealevel;temperature;humidity
67397;BME280;57728;50.448;18.824;2023-06-22T00:01:38;98018.28;;;23.79;67.78
67397;BME280;57728;50.448;18.824;2023-06-22T00:03:39;98029.75;;;23.78;67.85
67397;BME280;57728;50.448;18.824;2023-06-22T00:05:41;98027.28;;;23.76;67.51
67397;BME280;57728;50.448;18.824;2023-06-22T00:07:43;98031.19;;;23.75;67.81
67397;BME280;57728;50.448;18.824;2023-06-22T00:09:44;98036.56;;;23.72;67.81
67397;BME280;57728;50.448;18.824;2023-06-22T00:11:45;98029.00;;;23.63;68.23
67397;BME280;57728;50.448;18.824;2023-06-22T00:13:47;97991.25;;;23.40;67.94
67397;BME280;57728;50.448;18.824;2023-06-22T00:15:49;98030.31;;;23.66;68.31
67397;BME280;57728;50.448;18.824;2023-06-22T00:17:51;98001.34;;;23.35;68.50
67397;BME280;57728;50.448;18.824;2023-06-22T00:19:52;98042.53;;;23.56;68.26
67397;BME280;57728;50.448;18.824;2023-06-22T00:21:55;98033.97;;;23.52;68.41
67397;BME280;57728;50.448;18.824;2023-06-22T00:24:00;98034.94;;;23.48;68.70
67397;BME280;57728;50.448;18.824;2023-06-22T00:26:02;98017.41;;;23.39;69.03
67397;BME280;57728;50.448;18.824;2023-06-22T00:28:04;98025.09;;;23.42;69.17
67397;BME280;57728;50.448;18.824;2023-06-22T00:30:05;98020.78;;;23.35;68.81
67397;BME280;57728;50.448;18.824;2023-06-22T00:32:08;98021.81;;;23.40;69.09
67397;BME280;57728;50.448;18.824;2023-06-22T00:34:09;97952.34;;;22.94;69.24
67397;BME280;57728;50.448;18.824;2023-06-22T00:36:10;97992.16;;;23.26;69.17
67397;BME280;57728;50.448;18.824;2023-06-22T00:38:14;98017.56;;;23.42;69.73
67397;BME280;57728;50.448;18.824;2023-06-22T00:40:16;98008.06;;;23.34;69.52
67397;BME280;57728;50.448;18.824;2023-06-22T00:42:22;98029.59;;;23.51;69.23
67397;BME280;57728;50.448;18.824;2023-06-22T00:44:24;97971.81;;;23.17;68.89
67397;BME280;57728;50.448;18.824;2023-06-22T00:46:26;98033.69;;;23.54;69.25
67397;BME280;57728;50.448;18.824;2023-06-22T00:48:27;98049.84;;;23.52;68.90
67397;BME280;57728;50.448;18.824;2023-06-22T00:50:32;98024.22;;;23.32;69.06
67397;BME280;57728;50.448;18.824;2023-06-22T00:52:36;98049.66;;;23.48;69.17
67397;BME280;57728;50.448;18.824;2023-06-22T00:54:37;98044.97;;;23.35;69.37
67397;BME280;57728;50.448;18.824;2023-06-22T00:56:40;97993.88;;;22.99;69.33
67397;BME280;57728;50.448;18.824;2023-06-22T00:58:43;98035.13;;;23.29;69.37
67397;BME280;57728;50.448;18.824;2023-06-22T01:00:44;98060.59;;;23.45;69.08
67397;BME280;57728;50.448;18.824;2023-06-22T01:02:46;98066.47;;;23.43;69.62
67397;BME280;57728;50.448;18.824;2023-06-22T01:04:47;98060.09;;;23.43;69.53
67397;BME280;57728;50.448;18.824;2023-06-22T01:07:06;98067.91;;;23.41;69.78
67397;BME280;57728;50.448;18.824;2023-06-22T01:09:30;98054.44;;;23.34;69.43
67397;BME280;57728;50.448;18.824;2023-06-22T01:11:42;98058.13;;;23.43;69.38
67397;BME280;57728;50.448;18.824;2023-06-22T01:14:19;98057.00;;;23.44;69.47
67397;BME280;57728;50.448;18.824;2023-06-22T01:16:49;98039.75;;;23.33;69.65
67397;BME280;57728;50.448;18.824;2023-06-22T01:18:55;98050.09;;;23.42;69.52
67397;BME280;57728;50.448;18.824;2023-06-22T01:21:06;98016.44;;;23.21;69.81
67397;BME280;57728;50.448;18.824;2023-06-22T01:23:27;98046.94;;;23.34;70.04
67397;BME280;57728;50.448;18.824;2023-06-22T01:28:51;98054.69;;;23.24;70.31
67397;BME280;57728;50.448;18.824;2023-06-22T01:30:56;98035.81;;;23.12;70.47
67397;BME280;57728;50.448;18.824;2023-06-22T01:33:11;98035.19;;;23.15;70.18
67397;BME280;57728;50.448;18.824;2023-06-22T01:35:17;98040.22;;;23.13;70.51
67397;BME280;57728;50.448;18.824;2023-06-22T01:37:20;98034.13;;;23.11;70.35
67397;BME280;57728;50.448;18.824;2023-06-22T01:39:26;98010.94;;;22.93;70.41
67397;BME280;57728;50.448;18.824;2023-06-22T01:41:33;98037.34;;;23.04;70.89
67397;BME280;57728;50.448;18.824;2023-06-22T01:43:36;98043.22;;;23.02;70.78
67397;BME280;57728;50.448;18.824;2023-06-22T01:45:38;98053.69;;;23.06;70.95
67397;BME280;57728;50.448;18.824;2023-06-22T01:47:40;98047.75;;;22.98;70.64
67397;BME280;57728;50.448;18.824;2023-06-22T01:49:44;98015.50;;;22.75;70.86
67397;BME280;57728;50.448;18.824;2023-06-22T01:51:46;98054.94;;;22.99;71.09
67397;BME280;57728;50.448;18.824;2023-06-22T01:53:48;98033.56;;;22.86;71.06
67397;BME280;57728;50.448;18.824;2023-06-22T01:55:50;97943.34;;;22.24;71.24
67397;BME280;57728;50.448;18.824;2023-06-22T01:57:51;98050.66;;;22.93;71.29
67397;BME280;57728;50.448;18.824;2023-06-22T02:00:03;98049.50;;;22.94;71.50
67397;BME280;57728;50.448;18.824;2023-06-22T02:02:19;98049.50;;;22.94;71.30
67397;BME280;57728;50.448;18.824;2023-06-22T02:04:36;98040.78;;;22.87;71.23
67397;BME280;57728;50.448;18.824;2023-06-22T02:06:58;98047.97;;;22.88;71.31
67397;BME280;57728;50.448;18.824;2023-06-22T02:09:02;98036.41;;;22.72;71.59
67397;BME280;57728;50.448;18.824;2023-06-22T02:11:12;98046.56;;;22.77;71.89
67397;BME280;57728;50.448;18.824;2023-06-22T02:13:17;98008.69;;;22.44;71.58
67397;BME280;57728;50.448;18.824;2023-06-22T02:15:20;98074.50;;;22.80;72.00
67397;BME280;57728;50.448;18.824;2023-06-22T02:17:28;98068.94;;;22.80;71.66
67397;BME280;57728;50.448;18.824;2023-06-22T02:19:41;98067.00;;;22.81;71.81
67397;BME280;57728;50.448;18.824;2023-06-22T02:21:42;98047.69;;;22.62;71.71
67397;BME280;57728;50.448;18.824;2023-06-22T02:23:45;98051.91;;;22.59;71.70
67397;BME280;57728;50.448;18.824;2023-06-22T02:25:47;97993.34;;;22.19;72.14
67397;BME280;57728;50.448;18.824;2023-06-22T02:27:48;98035.25;;;22.31;72.33
67397;BME280;57728;50.448;18.824;2023-06-22T02:29:51;97967.88;;;21.89;72.48
67397;BME280;57728;50.448;18.824;2023-06-22T02:31:54;98038.97;;;22.27;72.42
67397;BME280;57728;50.448;18.824;2023-06-22T02:33:57;98075.97;;;22.50;72.76
67397;BME280;57728;50.448;18.824;2023-06-22T02:35:59;98077.94;;;22.49;72.83
67397;BME280;57728;50.448;18.824;2023-06-22T02:38:03;98060.75;;;22.33;72.93
67397;BME280;57728;50.448;18.824;2023-06-22T02:40:07;98089.13;;;22.44;73.08
67397;BME280;57728;50.448;18.824;2023-06-22T02:42:09;98090.53;;;22.42;72.84
67397;BME280;57728;50.448;18.824;2023-06-22T02:44:15;98067.50;;;22.27;73.29
67397;BME280;57728;50.448;18.824;2023-06-22T02:46:16;98096.19;;;22.37;73.41
67397;BME280;57728;50.448;18.824;2023-06-22T02:48:18;98103.75;;;22.31;73.24
67397;BME280;57728;50.448;18.824;2023-06-22T02:50:20;98094.13;;;22.28;73.63
67397;BME280;57728;50.448;18.824;2023-06-22T02:52:21;98033.59;;;21.89;73.65
67397;BME280;57728;50.448;18.824;2023-06-22T02:54:22;98087.63;;;22.19;73.57
67397;BME280;57728;50.448;18.824;2023-06-22T02:56:28;98086.59;;;22.15;73.88
67397;BME280;57728;50.448;18.824;2023-06-22T02:58:34;98089.34;;;22.15;73.97
67397;BME280;57728;50.448;18.824;2023-06-22T03:00:40;98062.34;;;21.93;73.85
67397;BME280;57728;50.448;18.824;2023-06-22T03:02:47;98117.19;;;22.24;73.93
67397;BME280;57728;50.448;18.824;2023-06-22T03:04:49;98118.03;;;22.24;73.67
67397;BME280;57728;50.448;18.824;2023-06-22T03:06:50;98131.06;;;22.24;73.88
67397;BME280;57728;50.448;18.824;2023-06-22T03:08:53;98142.16;;;22.24;73.59
67397;BME280;57728;50.448;18.824;2023-06-22T03:10:54;98129.44;;;22.23;73.66
67397;BME280;57728;50.448;18.824;2023-06-22T03:12:55;98099.09;;;21.98;73.77
67397;BME280;57728;50.448;18.824;2023-06-22T03:14:57;98126.66;;;22.23;73.76
67397;BME280;57728;50.448;18.824;2023-06-22T03:16:59;98132.09;;;22.28;73.83
67397;BME280;57728;50.448;18.824;2023-06-22T03:19:03;98139.59;;;22.27;74.15
67397;BME280;57728;50.448;18.824;2023-06-22T03:21:05;98142.06;;;22.29;74.07
67397;BME280;57728;50.448;18.824;2023-06-22T03:23:06;98089.63;;;21.99;73.71
67397;BME280;57728;50.448;18.824;2023-06-22T03:25:08;98136.28;;;22.25;73.91
67397;BME280;57728;50.448;18.824;2023-06-22T03:27:20;98135.72;;;22.28;73.73
67397;BME280;57728;50.448;18.824;2023-06-22T03:29:21;98137.88;;;22.31;73.84
67397;BME280;57728;50.448;18.824;2023-06-22T03:31:25;98118.44;;;22.18;73.52
67397;BME280;57728;50.448;18.824;2023-06-22T03:33:28;98118.03;;;22.24;73.45
67397;BME280;57728;50.448;18.824;2023-06-22T03:35:32;98130.66;;;22.30;73.75
67397;BME280;57728;50.448;18.824;2023-06-22T03:37:33;98123.59;;;22.24;73.48
67397;BME280;57728;50.448;18.824;2023-06-22T03:39:35;98137.59;;;22.33;73.65
67397;BME280;57728;50.448;18.824;2023-06-22T03:41:37;98098.91;;;22.09;73.84
67397;BME280;57728;50.448;18.824;2023-06-22T03:43:39;98141.72;;;22.36;73.63
67397;BME280;57728;50.448;18.824;2023-06-22T03:45:41;98130.34;;;22.32;73.46
67397;BME280;57728;50.448;18.824;2023-06-22T03:47:42;98138.81;;;22.41;73.48
67397;BME280;57728;50.448;18.824;2023-06-22T03:49:43;98139.34;;;22.43;73.46
67397;BME280;57728;50.448;18.824;2023-06-22T03:51:45;98125.66;;;22.32;73.49
67397;BME280;57728;50.448;18.824;2023-06-22T03:53:46;98134.50;;;22.35;73.05
67397;BME280;57728;50.448;18.824;2023-06-22T03:55:51;98131.19;;;22.32;73.24
67397;BME280;57728;50.448;18.824;2023-06-22T03:57:53;98150.75;;;22.41;73.14
67397;BME280;57728;50.448;18.824;2023-06-22T03:59:57;98149.91;;;22.41;73.44
67397;BME280;57728;50.448;18.824;2023-06-22T04:01:59;98132.63;;;22.30;73.57
67397;BME280;57728;50.448;18.824;2023-06-22T04:04:01;98163.47;;;22.42;73.36
67397;BME280;57728;50.448;18.824;2023-06-22T04:06:02;98140.28;;;22.38;73.28
67397;BME280;57728;50.448;18.824;2023-06-22T04:08:03;98153.63;;;22.50;73.28
67397;BME280;57728;50.448;18.824;2023-06-22T04:10:06;98158.56;;;22.53;73.14
67397;BME280;57728;50.448;18.824;2023-06-22T04:12:07;98156.31;;;22.55;72.94
67397;BME280;57728;50.448;18.824;2023-06-22T04:14:08;98159.59;;;22.57;72.97
67397;BME280;57728;50.448;18.824;2023-06-22T04:16:10;98157.34;;;22.59;73.24
67397;BME280;57728;50.448;18.824;2023-06-22T04:18:11;98140.06;;;22.48;72.84
67397;BME280;57728;50.448;18.824;2023-06-22T04:20:14;98161.66;;;22.65;73.14
67397;BME280;57728;50.448;18.824;2023-06-22T04:22:18;98123.53;;;22.43;72.80
67397;BME280;57728;50.448;18.824;2023-06-22T04:24:19;98155.59;;;22.63;72.62
67397;BME280;57728;50.448;18.824;2023-06-22T04:26:20;98134.72;;;22.52;72.66
67397;BME280;57728;50.448;18.824;2023-06-22T04:28:22;98159.41;;;22.67;72.83
67397;BME280;57728;50.448;18.824;2023-06-22T04:30:23;98164.53;;;22.74;72.92
67397;BME280;57728;50.448;18.824;2023-06-22T04:32:25;98170.09;;;22.74;72.60
67397;BME280;57728;50.448;18.824;2023-06-22T04:34:26;98114.56;;;22.46;73.03
67397;BME280;57728;50.448;18.824;2023-06-22T04:36:28;98169.16;;;22.79;72.92
67397;BME280;57728;50.448;18.824;2023-06-22T04:38:37;98141.13;;;22.66;72.74
67397;BME280;57728;50.448;18.824;2023-06-22T04:40:40;98139.16;;;22.67;72.73
67397;BME280;57728;50.448;18.824;2023-06-22T04:42:41;98164.66;;;22.83;72.45
67397;BME280;57728;50.448;18.824;2023-06-22T04:44:53;98165.81;;;22.82;72.72
67397;BME280;57728;50.448;18.824;2023-06-22T04:47:00;98154.78;;;22.77;72.50
67397;BME280;57728;50.448;18.824;2023-06-22T04:49:07;98131.34;;;22.55;72.82
67397;BME280;57728;50.448;18.824;2023-06-22T04:51:12;98176.91;;;22.82;72.87
67397;BME280;57728;50.448;18.824;2023-06-22T04:53:14;98150.75;;;22.69;72.72
67397;BME280;57728;50.448;18.824;2023-06-22T04:55:15;98178.22;;;22.84;72.48
67397;BME280;57728;50.448;18.824;2023-06-22T04:57:19;98152.94;;;22.72;72.65
67397;BME280;57728;50.448;18.824;2023-06-22T04:59:20;98174.22;;;22.91;73.00
67397;BME280;57728;50.448;18.824;2023-06-22T05:01:21;98182.44;;;22.96;72.84
67397;BME280;57728;50.448;18.824;2023-06-22T05:03:25;98184.78;;;23.02;72.46
67397;BME280;57728;50.448;18.824;2023-06-22T05:05:27;98187.78;;;23.06;72.47
67397;BME280;57728;50.448;18.824;2023-06-22T05:07:28;98193.78;;;23.13;72.58
67397;BME280;57728;50.448;18.824;2023-06-22T05:09:30;98184.28;;;23.14;72.70
67397;BME280;57728;50.448;18.824;2023-06-22T05:11:32;98172.78;;;23.21;72.86
67397;BME280;57728;50.448;18.824;2023-06-22T05:13:33;98197.13;;;23.38;71.97
67397;BME280;57728;50.448;18.824;2023-06-22T05:15:34;98163.50;;;23.26;71.53
67397;BME280;57728;50.448;18.824;2023-06-22T05:17:41;98180.16;;;23.40;71.29
67397;BME280;57728;50.448;18.824;2023-06-22T05:19:48;98163.09;;;23.32;71.48
67397;BME280;57728;50.448;18.824;2023-06-22T05:21:49;98190.81;;;23.60;71.19
67397;BME280;57728;50.448;18.824;2023-06-22T05:23:52;98187.47;;;23.72;70.54
67397;BME280;57728;50.448;18.824;2023-06-22T05:25:54;98198.16;;;23.79;70.13
67397;BME280;57728;50.448;18.824;2023-06-22T05:27:58;98194.66;;;23.87;70.13
67397;BME280;57728;50.448;18.824;2023-06-22T05:30:00;98183.94;;;23.94;69.44
67397;BME280;57728;50.448;18.824;2023-06-22T05:32:01;98190.88;;;24.06;69.51
67397;BME280;57728;50.448;18.824;2023-06-22T05:34:03;98184.69;;;24.09;68.83
67397;BME280;57728;50.448;18.824;2023-06-22T05:36:05;98130.19;;;23.85;68.67
67397;BME280;57728;50.448;18.824;2023-06-22T05:38:06;98192.53;;;24.29;68.05
67397;BME280;57728;50.448;18.824;2023-06-22T05:40:08;98188.97;;;24.37;68.03
67397;BME280;57728;50.448;18.824;2023-06-22T05:42:11;98200.31;;;24.50;67.61
67397;BME280;57728;50.448;18.824;2023-06-22T05:44:13;98205.03;;;24.63;67.07
67397;BME280;57728;50.448;18.824;2023-06-22T05:46:14;98206.38;;;24.75;66.93
67397;BME280;57728;50.448;18.824;2023-06-22T05:48:16;98210.53;;;24.86;65.91
67397;BME280;57728;50.448;18.824;2023-06-22T05:50:17;98210.22;;;24.96;65.19
67397;BME280;57728;50.448;18.824;2023-06-22T05:52:18;98185.81;;;24.93;64.52
67397;BME280;57728;50.448;18.824;2023-06-22T05:54:20;98198.66;;;25.12;63.87
67397;BME280;57728;50.448;18.824;2023-06-22T05:56:21;98184.25;;;25.10;63.53
67397;BME280;57728;50.448;18.824;2023-06-22T05:58:22;98204.13;;;25.26;62.63
67397;BME280;57728;50.448;18.824;2023-06-22T06:00:24;98202.66;;;25.28;62.70
67397;BME280;57728;50.448;18.824;2023-06-22T06:02:25;98201.00;;;25.27;62.09
67397;BME280;57728;50.448;18.824;2023-06-22T06:04:27;98201.00;;;25.27;61.37
67397;BME280;57728;50.448;18.824;2023-06-22T06:06:28;98202.66;;;25.28;60.87
67397;BME280;57728;50.448;18.824;2023-06-22T06:08:30;98218.56;;;25.36;60.37
67397;BME280;57728;50.448;18.824;2023-06-22T06:10:32;98213.00;;;25.36;59.95
67397;BME280;57728;50.448;18.824;2023-06-22T06:12:34;98207.06;;;25.29;59.62
67397;BME280;57728;50.448;18.824;2023-06-22T06:14:36;98221.34;;;25.36;59.44
67397;BME280;57728;50.448;18.824;2023-06-22T06:16:40;98216.63;;;25.37;58.87
67397;BME280;57728;50.448;18.824;2023-06-22T06:18:42;98196.56;;;25.26;58.63
67397;BME280;57728;50.448;18.824;2023-06-22T06:20:43;98215.97;;;25.40;58.04
67397;BME280;57728;50.448;18.824;2023-06-22T06:22:44;98223.53;;;25.39;57.60
67397;BME280;57728;50.448;18.824;2023-06-22T06:24:47;98227.94;;;25.40;57.52
67397;BME280;57728;50.448;18.824;2023-06-22T06:26:48;98219.25;;;25.42;57.32
67397;BME280;57728;50.448;18.824;2023-06-22T06:28:49;98218.09;;;25.43;57.15
67397;BME280;57728;50.448;18.824;2023-06-22T06:30:51;98225.00;;;25.46;56.74
67397;BME280;57728;50.448;18.824;2023-06-22T06:32:52;98213.84;;;25.46;57.05
67397;BME280;57728;50.448;18.824;2023-06-22T06:34:55;98220.75;;;25.57;56.34
67397;BME280;57728;50.448;18.824;2023-06-22T06:36:57;98231.09;;;25.65;56.17
67397;BME280;57728;50.448;18.824;2023-06-22T06:39:00;98211.25;;;25.67;55.88
67397;BME280;57728;50.448;18.824;2023-06-22T06:41:01;98210.94;;;25.68;55.29
67397;BME280;57728;50.448;18.824;2023-06-22T06:43:03;98200.91;;;25.67;55.34
67397;BME280;57728;50.448;18.824;2023-06-22T06:45:05;98209.31;;;25.85;55.16
67397;BME280;57728;50.448;18.824;2023-06-22T06:47:06;98212.25;;;25.97;55.01
67397;BME280;57728;50.448;18.824;2023-06-22T06:49:08;98218.84;;;26.01;54.85
67397;BME280;57728;50.448;18.824;2023-06-22T06:51:09;98211.97;;;26.07;54.47
67397;BME280;57728;50.448;18.824;2023-06-22T06:53:10;98203.94;;;26.06;53.91
67397;BME280;57728;50.448;18.824;2023-06-22T06:55:12;98206.84;;;26.09;54.01
67397;BME280;57728;50.448;18.824;2023-06-22T06:57:14;98216.53;;;26.21;54.14
67397;BME280;57728;50.448;18.824;2023-06-22T06:59:16;98195.53;;;26.15;53.57
67397;BME280;57728;50.448;18.824;2023-06-22T07:01:18;98211.78;;;26.30;53.07
67397;BME280;57728;50.448;18.824;2023-06-22T07:03:20;98202.91;;;26.28;53.05
67397;BME280;57728;50.448;18.824;2023-06-22T07:05:21;98187.97;;;26.24;53.05
67397;BME280;57728;50.448;18.824;2023-06-22T07:07:23;98172.88;;;26.16;53.30
67397;BME280;57728;50.448;18.824;2023-06-22T07:09:24;98206.81;;;26.45;52.81
67397;BME280;57728;50.448;18.824;2023-06-22T07:11:26;98217.94;;;26.53;53.04
67397;BME280;57728;50.448;18.824;2023-06-22T07:13:28;98221.22;;;26.64;53.00
67397;BME280;57728;50.448;18.824;2023-06-22T07:15:29;98218.09;;;26.74;52.61
67397;BME280;57728;50.448;18.824;2023-06-22T07:17:31;98120.69;;;26.17;52.70
67397;BME280;57728;50.448;18.824;2023-06-22T07:19:33;98233.50;;;26.89;51.98
67397;BME280;57728;50.448;18.824;2023-06-22T07:21:34;98215.56;;;26.90;51.80
67397;BME280;57728;50.448;18.824;2023-06-22T07:23:35;98219.16;;;27.00;51.76
67397;BME280;57728;50.448;18.824;2023-06-22T07:25:37;98227.50;;;27.08;51.71
67397;BME280;57728;50.448;18.824;2023-06-22T07:27:42;98227.09;;;27.19;51.27
67397;BME280;57728;50.448;18.824;2023-06-22T07:29:48;98219.06;;;27.17;51.08
67397;BME280;57728;50.448;18.824;2023-06-22T07:31:50;98181.19;;;26.99;50.78
67397;BME280;57728;50.448;18.824;2023-06-22T07:33:56;98191.66;;;27.10;50.32
67397;BME280;57728;50.448;18.824;2023-06-22T07:35:57;98212.47;;;27.22;50.13
67397;BME280;57728;50.448;18.824;2023-06-22T07:37:59;98203.41;;;27.25;50.63
67397;BME280;57728;50.448;18.824;2023-06-22T07:40:01;98231.56;;;27.50;50.49
67397;BME280;57728;50.448;18.824;2023-06-22T07:42:05;98226.13;;;27.53;50.14
67397;BME280;57728;50.448;18.824;2023-06-22T07:44:07;98227.09;;;27.57;50.36
67397;BME280;57728;50.448;18.824;2023-06-22T07:46:08;98214.41;;;27.60;49.89
67397;BME280;57728;50.448;18.824;2023-06-22T07:48:09;98209.97;;;27.59;49.72
67397;BME280;57728;50.448;18.824;2023-06-22T07:50:11;98214.72;;;27.58;49.50
67397;BME280;57728;50.448;18.824;2023-06-22T07:52:12;98235.34;;;27.75;49.08
67397;BME280;57728;50.448;18.824;2023-06-22T07:54:14;98241.22;;;27.82;49.58
67397;BME280;57728;50.448;18.824;2023-06-22T07:56:17;98244.44;;;27.93;49.15
67397;BME280;57728;50.448;18.824;2023-06-22T07:58:20;98225.31;;;27.95;49.51
67397;BME280;57728;50.448;18.824;2023-06-22T08:00:21;98246.38;;;28.22;49.21
67397;BME280;57728;50.448;18.824;2023-06-22T08:02:23;98241.66;;;28.35;49.36
67397;BME280;57728;50.448;18.824;2023-06-22T08:04:24;98253.00;;;28.51;47.92
67397;BME280;57728;50.448;18.824;2023-06-22T08:06:25;98247.75;;;28.50;47.18
67397;BME280;57728;50.448;18.824;2023-06-22T08:08:27;98255.81;;;28.51;47.40
67397;BME280;57728;50.448;18.824;2023-06-22T08:10:28;98254.44;;;28.57;47.23
67397;BME280;57728;50.448;18.824;2023-06-22T08:12:30;98248.16;;;28.60;47.54
67397;BME280;57728;50.448;18.824;2023-06-22T08:14:32;98262.81;;;28.78;47.03
67397;BME280;57728;50.448;18.824;2023-06-22T08:16:33;98235.25;;;28.68;46.64
67397;BME280;57728;50.448;18.824;2023-06-22T08:18:34;98238.28;;;28.75;46.40
67397;BME280;57728;50.448;18.824;2023-06-22T08:20:37;98266.03;;;29.02;46.14
67397;BME280;57728;50.448;18.824;2023-06-22T08:22:40;98265.56;;;29.12;45.99
67397;BME280;57728;50.448;18.824;2023-06-22T08:24:42;98265.59;;;29.24;45.73
67397;BME280;57728;50.448;18.824;2023-06-22T08:26:45;98272.59;;;29.30;46.09
67397;BME280;57728;50.448;18.824;2023-06-22T08:28:46;98256.59;;;29.31;45.85
67397;BME280;57728;50.448;18.824;2023-06-22T08:30:47;98278.00;;;29.48;45.79
67397;BME280;57728;50.448;18.824;2023-06-22T08:32:49;98269.09;;;29.46;45.16
67397;BME280;57728;50.448;18.824;2023-06-22T08:34:50;98278.91;;;29.64;45.24
67397;BME280;57728;50.448;18.824;2023-06-22T08:36:52;98280.44;;;29.74;44.34
67397;BME280;57728;50.448;18.824;2023-06-22T08:38:54;98263.59;;;29.74;44.44
67397;BME280;57728;50.448;18.824;2023-06-22T08:40:58;98267.78;;;29.93;44.86
67397;BME280;57728;50.448;18.824;2023-06-22T08:43:00;98271.75;;;30.04;43.97
67397;BME280;57728;50.448;18.824;2023-06-22T08:45:02;98274.88;;;30.15;44.10
67397;BME280;57728;50.448;18.824;2023-06-22T08:47:04;98283.63;;;30.26;44.03
67397;BME280;57728;50.448;18.824;2023-06-22T08:49:05;98279.16;;;30.37;44.09
67397;BME280;57728;50.448;18.824;2023-06-22T08:51:08;98293.50;;;30.48;43.44
67397;BME280;57728;50.448;18.824;2023-06-22T08:53:09;98287.72;;;30.57;42.77
67397;BME280;57728;50.448;18.824;2023-06-22T08:55:10;98281.69;;;30.42;42.17
67397;BME280;57728;50.448;18.824;2023-06-22T08:57:12;98237.09;;;30.12;42.68
67397;BME280;57728;50.448;18.824;2023-06-22T08:59:13;98276.06;;;30.42;42.48
67397;BME280;57728;50.448;18.824;2023-06-22T09:01:14;98275.78;;;30.31;42.66
67397;BME280;57728;50.448;18.824;2023-06-22T09:03:19;98269.31;;;30.31;43.07
67397;BME280;57728;50.448;18.824;2023-06-22T09:05:21;98230.56;;;30.08;43.03
67397;BME280;57728;50.448;18.824;2023-06-22T09:07:25;98254.00;;;30.28;43.01
67397;BME280;57728;50.448;18.824;2023-06-22T09:09:27;98217.44;;;30.12;42.11
67397;BME280;57728;50.448;18.824;2023-06-22T09:11:28;98268.34;;;30.51;42.62
67397;BME280;57728;50.448;18.824;2023-06-22T09:13:32;98246.47;;;30.45;42.47
67397;BME280;57728;50.448;18.824;2023-06-22T09:15:34;98131.72;;;29.87;42.53
67397;BME280;57728;50.448;18.824;2023-06-22T09:17:36;98099.09;;;29.82;42.37
67397;BME280;57728;50.448;18.824;2023-06-22T09:19:37;98264.34;;;30.97;41.72
67397;BME280;57728;50.448;18.824;2023-06-22T09:21:39;98260.03;;;31.15;42.40
67397;BME280;57728;50.448;18.824;2023-06-22T09:23:40;98233.63;;;31.20;41.41
67397;BME280;57728;50.448;18.824;2023-06-22T09:25:42;98251.91;;;31.46;41.57
67397;BME280;57728;50.448;18.824;2023-06-22T09:27:44;98240.94;;;31.57;41.17
67397;BME280;57728;50.448;18.824;2023-06-22T09:29:45;98238.78;;;31.66;40.50
67397;BME280;57728;50.448;18.824;2023-06-22T09:31:46;98248.34;;;31.81;39.66
67397;BME280;57728;50.448;18.824;2023-06-22T09:33:48;98244.13;;;31.91;39.27
67397;BME280;57728;50.448;18.824;2023-06-22T09:35:49;98240.09;;;32.08;39.30
67397;BME280;57728;50.448;18.824;2023-06-22T09:37:51;98227.88;;;32.19;38.55
67397;BME280;57728;50.448;18.824;2023-06-22T09:39:53;98246.25;;;32.52;38.13
67397;BME280;57728;50.448;18.824;2023-06-22T09:41:54;98237.22;;;32.86;37.80
67397;BME280;57728;50.448;18.824;2023-06-22T09:43:55;98232.59;;;33.20;37.09
67397;BME280;57728;50.448;18.824;2023-06-22T09:45:58;98233.03;;;33.72;36.88
67397;BME280;57728;50.448;18.824;2023-06-22T09:47:59;98224.56;;;34.30;35.90
67397;BME280;57728;50.448;18.824;2023-06-22T09:50:00;98198.16;;;34.52;35.09
67397;BME280;57728;50.448;18.824;2023-06-22T09:52:02;98221.25;;;34.95;34.80
67397;BME280;57728;50.448;18.824;2023-06-22T09:54:03;98225.50;;;35.23;33.96
67397;BME280;57728;50.448;18.824;2023-06-22T09:56:04;98215.13;;;35.35;34.00
67397;BME280;57728;50.448;18.824;2023-06-22T09:58:07;98215.13;;;35.35;33.71
67397;BME280;57728;50.448;18.824;2023-06-22T10:00:10;98221.44;;;35.17;33.72
67397;BME280;57728;50.448;18.824;2023-06-22T10:02:13;98207.78;;;35.26;34.08
67397;BME280;57728;50.448;18.824;2023-06-22T10:04:15;98200.72;;;35.54;33.09
67397;BME280;57728;50.448;18.824;2023-06-22T10:06:17;98211.50;;;36.01;32.90
67397;BME280;57728;50.448;18.824;2023-06-22T10:08:18;98214.16;;;36.45;32.58
67397;BME280;57728;50.448;18.824;2023-06-22T10:10:20;98191.53;;;36.78;32.06
67397;BME280;57728;50.448;18.824;2023-06-22T10:12:21;98184.28;;;37.31;31.04
67397;BME280;57728;50.448;18.824;2023-06-22T10:14:22;98205.69;;;37.86;30.29
67397;BME280;57728;50.448;18.824;2023-06-22T10:16:31;98222.19;;;38.34;29.25
67397;BME280;57728;50.448;18.824;2023-06-22T10:18:33;98195.22;;;38.64;28.44
67397;BME280;57728;50.448;18.824;2023-06-22T10:20:34;98216.66;;;38.80;27.58
67397;BME280;57728;50.448;18.824;2023-06-22T10:22:38;98200.44;;;38.77;28.16
67397;BME280;57728;50.448;18.824;2023-06-22T10:24:42;98220.09;;;39.09;27.46
67397;BME280;57728;50.448;18.824;2023-06-22T10:26:45;98215.81;;;39.39;27.41
67397;BME280;57728;50.448;18.824;2023-06-22T10:28:47;98213.94;;;39.67;27.07
67397;BME280;57728;50.448;18.824;2023-06-22T10:30:48;98218.38;;;40.10;26.98
67397;BME280;57728;50.448;18.824;2023-06-22T10:32:49;98225.81;;;40.34;26.69
67397;BME280;57728;50.448;18.824;2023-06-22T10:34:52;98226.78;;;40.55;26.46
67397;BME280;57728;50.448;18.824;2023-06-22T10:36:53;98214.13;;;40.83;25.70
67397;BME280;57728;50.448;18.824;2023-06-22T10:38:54;98226.66;;;40.93;25.17
67397;BME280;57728;50.448;18.824;2023-06-22T10:40:57;98216.50;;;40.92;24.70
67397;BME280;57728;50.448;18.824;2023-06-22T10:42:58;98221.53;;;41.08;24.94
67397;BME280;57728;50.448;18.824;2023-06-22T10:44:59;98207.19;;;41.12;24.59
67397;BME280;57728;50.448;18.824;2023-06-22T10:47:01;98216.44;;;40.65;24.66